Time;durP1;ratioP1;P1;durP2;ratioP2;P2;SDS_P1;SDS_P2;PMS_P1;PMS_P2;Temp;Humidity;BMP_temperature;BMP_pressure;BME280_temperature;BME280_humidity;BME280_pressure;Samples;Min_cycle;Max_cycle;Signal;HPM_P1;HPM_P2
2021/05/05 04:02:15;;;;;;;3.57;1.80;;;8.10;99.90;;;;;;5152777;23;20604;-65
2021/05/05 04:04:41;;;;;;;7.50;1.90;;;8.00;99.90;;;;;;4985956;28;20466;-64
2021/05/05 04:07:07;;;;;;;3.10;1.43;;;8.00;99.90;;;;;;4975606;28;20945;-66
2021/05/05 04:09:35;;;;;;;4.20;1.67;;;8.00;99.90;;;;;;4977879;28;20458;-66
2021/05/05 04:12:02;;;;;;;2.53;1.37;;;7.90;99.90;;;;;;4978419;28;20537;-65
2021/05/05 04:14:28;;;;;;;3.50;1.63;;;7.90;99.90;;;;;;4978088;28;20458;-66
2021/05/05 04:16:54;;;;;;;3.80;1.40;;;7.80;99.90;;;;;;4978169;28;20459;-65
2021/05/05 04:19:21;;;;;;;1.40;1.30;;;7.80;99.90;;;;;;4978078;28;20461;-66
2021/05/05 04:21:48;;;;;;;4.10;1.17;;;7.70;99.90;;;;;;4977756;28;20981;-65
2021/05/05 04:24:14;;;;;;;1.27;1.20;;;7.70;99.90;;;;;;4978056;28;20463;-66
2021/05/05 04:26:41;;;;;;;1.20;1.10;;;7.50;99.90;;;;;;4977861;28;20975;-66
2021/05/05 04:29:07;;;;;;;2.80;1.40;;;7.50;99.90;;;;;;4978115;28;20478;-66
2021/05/05 04:31:33;;;;;;;1.67;1.57;;;7.40;99.90;;;;;;4978831;28;20486;-65
2021/05/05 04:34:00;;;;;;;1.47;1.37;;;7.40;99.90;;;;;;4978155;28;20513;-65
2021/05/05 04:36:27;;;;;;;5.07;1.53;;;7.50;99.90;;;;;;4977803;28;20455;-64
2021/05/05 04:38:53;;;;;;;4.50;1.73;;;7.50;99.90;;;;;;4977836;28;20455;-64
2021/05/05 04:41:19;;;;;;;2.10;1.40;;;7.60;99.90;;;;;;4977684;28;20483;-66
2021/05/05 04:43:46;;;;;;;2.20;1.37;;;7.60;99.90;;;;;;4977773;28;20852;-66
2021/05/05 04:46:12;;;;;;;2.07;1.70;;;7.60;99.90;;;;;;4977639;28;20533;-65
2021/05/05 04:48:38;;;;;;;3.60;1.73;;;7.50;99.90;;;;;;4977859;28;20451;-64
2021/05/05 04:51:05;;;;;;;4.30;1.70;;;7.60;99.90;;;;;;4977607;28;20482;-66
2021/05/05 04:53:32;;;;;;;3.20;1.43;;;7.60;99.90;;;;;;4977423;28;20474;-66
2021/05/05 04:55:58;;;;;;;1.17;1.10;;;7.60;99.90;;;;;;4977888;28;20459;-64
2021/05/05 04:58:24;;;;;;;1.50;1.30;;;7.60;99.90;;;;;;4977515;28;20455;-64
2021/05/05 05:00:50;;;;;;;2.63;1.43;;;7.60;99.90;;;;;;4977763;28;20482;-64
2021/05/05 05:03:17;;;;;;;1.50;1.40;;;7.60;99.90;;;;;;4977181;28;20798;-64
2021/05/05 05:05:43;;;;;;;3.07;1.20;;;7.60;99.90;;;;;;4977232;28;20501;-65
2021/05/05 05:08:09;;;;;;;3.00;1.40;;;7.70;99.90;;;;;;4977499;28;20462;-65
2021/05/05 05:10:37;;;;;;;2.73;1.07;;;7.60;99.90;;;;;;4978501;28;20559;-65
2021/05/05 05:13:03;;;;;;;1.37;1.27;;;7.60;99.90;;;;;;4982930;28;20482;-65
2021/05/05 05:15:30;;;;;;;2.23;1.30;;;7.60;99.90;;;;;;4983234;28;20458;-63
2021/05/05 05:17:56;;;;;;;1.53;0.90;;;7.70;99.90;;;;;;4982418;28;20466;-63
2021/05/05 05:20:22;;;;;;;2.10;1.07;;;7.90;99.90;;;;;;4979855;28;20461;-65
2021/05/05 05:22:50;;;;;;;1.70;1.10;;;7.90;99.90;;;;;;4977600;28;20455;-66
2021/05/05 05:25:16;;;;;;;1.40;1.30;;;8.10;99.90;;;;;;4977161;28;20961;-64
2021/05/05 05:27:43;;;;;;;1.70;0.80;;;8.20;99.90;;;;;;4977157;28;20458;-64
2021/05/05 05:30:11;;;;;;;1.50;1.40;;;8.30;99.90;;;;;;4977237;28;20467;-65
2021/05/05 05:32:37;;;;;;;1.10;1.00;;;8.40;99.90;;;;;;4976839;28;20482;-65
2021/05/05 05:35:05;;;;;;;3.80;1.20;;;8.50;99.90;;;;;;4976442;28;20454;-65
2021/05/05 05:37:31;;;;;;;2.50;1.50;;;8.50;99.90;;;;;;4976223;28;20798;-65
2021/05/05 05:39:57;;;;;;;1.63;1.47;;;8.60;99.90;;;;;;4976532;28;20488;-65
2021/05/05 05:42:24;;;;;;;1.43;1.20;;;8.70;99.90;;;;;;4976199;28;20475;-65
2021/05/05 05:44:51;;;;;;;1.67;1.00;;;8.60;99.90;;;;;;4976395;28;20481;-63
2021/05/05 05:47:17;;;;;;;1.00;1.00;;;8.60;99.90;;;;;;4976065;28;20534;-65
2021/05/05 05:49:43;;;;;;;1.70;0.80;;;8.60;99.90;;;;;;4976293;28;20463;-66
2021/05/05 05:52:09;;;;;;;0.80;0.80;;;8.50;99.90;;;;;;4976183;28;20505;-64
2021/05/05 05:54:35;;;;;;;0.80;0.80;;;8.50;99.90;;;;;;4976161;28;20455;-65
2021/05/05 05:57:02;;;;;;;1.30;1.20;;;8.50;99.90;;;;;;4976673;28;20467;-64
2021/05/05 05:59:28;;;;;;;1.90;1.23;;;8.40;99.90;;;;;;4976459;28;20454;-63
2021/05/05 06:01:55;;;;;;;2.33;1.60;;;8.60;99.90;;;;;;4976334;28;20483;-63
2021/05/05 06:04:21;;;;;;;2.60;1.20;;;8.80;99.90;;;;;;4976400;28;20501;-63
2021/05/05 06:06:48;;;;;;;2.50;1.70;;;9.00;99.90;;;;;;4975863;28;20950;-64
2021/05/05 06:09:14;;;;;;;1.47;0.97;;;9.20;99.90;;;;;;4976174;28;20505;-63
2021/05/05 06:11:40;;;;;;;2.90;1.73;;;9.30;99.90;;;;;;4975699;28;20985;-63
2021/05/05 06:14:06;;;;;;;3.77;2.00;;;9.50;99.90;;;;;;4976128;28;20458;-63
2021/05/05 06:16:33;;;;;;;2.30;1.20;;;9.70;99.90;;;;;;4976071;28;20459;-63
2021/05/05 06:19:00;;;;;;;1.23;1.03;;;9.80;99.90;;;;;;4975878;28;20465;-63
2021/05/05 06:21:27;;;;;;;3.70;1.90;;;9.80;99.90;;;;;;4976101;28;20834;-63
2021/05/05 06:23:53;;;;;;;4.50;1.60;;;10.00;99.90;;;;;;4976026;28;20517;-63
2021/05/05 06:26:20;;;;;;;3.83;1.50;;;10.30;99.90;;;;;;4975691;28;20439;-64
2021/05/05 06:28:46;;;;;;;3.33;1.30;;;10.50;99.90;;;;;;4975536;28;20477;-63
2021/05/05 06:31:12;;;;;;;1.73;1.13;;;10.90;99.90;;;;;;4975020;28;20871;-64
2021/05/05 06:33:39;;;;;;;2.87;1.53;;;11.50;99.90;;;;;;4975816;28;20491;-64
2021/05/05 06:36:07;;;;;;;2.57;1.93;;;11.60;99.90;;;;;;4975812;28;20455;-64
2021/05/05 06:38:34;;;;;;;3.57;1.50;;;11.80;99.90;;;;;;4975406;28;20454;-64
2021/05/05 06:41:00;;;;;;;3.93;1.50;;;11.90;99.90;;;;;;4975448;28;20478;-63
2021/05/05 06:43:26;;;;;;;2.17;1.43;;;12.20;99.90;;;;;;4975295;28;20451;-65
2021/05/05 06:45:53;;;;;;;5.03;1.80;;;12.00;99.90;;;;;;4975751;28;20459;-64
2021/05/05 06:48:19;;;;;;;3.47;1.70;;;11.70;99.90;;;;;;4975734;28;20455;-64
2021/05/05 06:50:45;;;;;;;3.53;1.90;;;11.40;99.90;;;;;;4975968;28;20474;-64
2021/05/05 06:53:12;;;;;;;3.63;1.80;;;11.10;99.90;;;;;;4976408;28;20479;-63
2021/05/05 06:55:39;;;;;;;5.23;2.07;;;10.60;99.90;;;;;;4975554;28;20455;-66
2021/05/05 06:58:05;;;;;;;6.87;2.00;;;10.30;99.90;;;;;;4975980;28;20549;-63
2021/05/05 07:00:31;;;;;;;3.70;1.77;;;10.10;99.90;;;;;;4975475;28;20512;-64
2021/05/05 07:02:58;;;;;;;5.63;2.00;;;10.00;99.90;;;;;;4975758;28;20436;-64
2021/05/05 07:05:24;;;;;;;2.93;2.40;;;10.10;99.90;;;;;;4978958;28;20482;-64
2021/05/05 07:07:50;;;;;;;3.37;1.87;;;10.10;99.90;;;;;;4991481;28;20439;-64
2021/05/05 07:10:17;;;;;;;3.37;1.63;;;10.60;99.90;;;;;;4987908;28;20458;-65
2021/05/05 07:12:43;;;;;;;5.43;1.97;;;11.20;99.90;;;;;;4978818;28;20474;-64
2021/05/05 07:15:10;;;;;;;9.87;1.97;;;11.70;99.90;;;;;;4976466;28;20762;-64
2021/05/05 07:17:36;;;;;;;2.10;1.53;;;12.30;99.90;;;;;;4975591;28;21021;-65
2021/05/05 07:20:03;;;;;;;3.33;1.53;;;12.90;99.90;;;;;;4975798;28;20455;-65
2021/05/05 07:22:29;;;;;;;4.10;1.40;;;13.20;99.90;;;;;;4975617;28;20471;-65
2021/05/05 07:24:56;;;;;;;3.53;1.77;;;13.10;99.90;;;;;;4977123;28;20454;-65
2021/05/05 07:27:23;;;;;;;4.10;1.50;;;12.80;99.90;;;;;;4975089;28;20455;-65
2021/05/05 07:29:49;;;;;;;3.33;1.83;;;12.50;99.90;;;;;;4974979;28;20454;-65
2021/05/05 07:32:16;;;;;;;4.23;1.63;;;12.60;99.90;;;;;;4974923;28;20482;-65
2021/05/05 07:34:43;;;;;;;10.97;2.27;;;13.30;99.90;;;;;;4976056;28;20461;-66
2021/05/05 07:37:13;;;;;;;4.33;1.80;;;14.00;99.90;;;;;;4975293;28;20454;-65
2021/05/05 07:40:16;;;;;;;2.87;1.33;;;14.60;99.90;;;;;;4975297;28;20517;-65
2021/05/05 07:48:25;;;;;;;4.67;1.77;;;16.70;97.00;;;;;;4976783;28;20552;-65
2021/05/05 07:50:52;;;;;;;2.97;1.83;;;17.30;96.00;;;;;;4978799;28;20548;-65
2021/05/05 07:53:18;;;;;;;4.07;2.17;;;17.90;96.70;;;;;;4979294;28;20475;-65
2021/05/05 07:55:44;;;;;;;2.47;1.60;;;17.60;91.80;;;;;;4978752;28;20905;-65
2021/05/05 07:58:12;;;;;;;2.30;1.53;;;17.50;91.50;;;;;;4978868;28;20458;-65
2021/05/05 08:00:38;;;;;;;5.57;1.60;;;16.80;88.90;;;;;;4978474;28;20956;-64
2021/05/05 08:03:05;;;;;;;2.27;1.37;;;15.80;91.30;;;;;;4978984;28;20458;-64
2021/05/05 08:05:31;;;;;;;2.10;1.80;;;16.10;93.60;;;;;;4978519;28;20454;-65
2021/05/05 08:07:57;;;;;;;6.67;1.60;;;16.30;92.40;;;;;;4978280;28;20928;-65
2021/05/05 08:10:24;;;;;;;3.97;1.83;;;16.90;86.90;;;;;;4978063;28;20933;-65
2021/05/05 08:12:50;;;;;;;3.90;1.93;;;17.50;89.10;;;;;;4978549;28;20506;-65
2021/05/05 08:15:18;;;;;;;3.00;1.93;;;17.90;85.70;;;;;;4985067;28;20815;-65
2021/05/05 08:17:46;;;;;;;2.30;1.30;;;17.80;85.70;;;;;;4979435;28;20462;-65
2021/05/05 08:20:13;;;;;;;6.10;1.30;;;17.50;82.40;;;;;;4978081;28;20501;-65
2021/05/05 08:22:39;;;;;;;4.23;2.07;;;17.20;80.70;;;;;;4978284;28;20861;-64
2021/05/05 08:25:07;;;;;;;4.70;1.77;;;17.60;85.90;;;;;;4977893;28;20454;-64
2021/05/05 08:27:33;;;;;;;1.97;1.43;;;17.30;76.30;;;;;;4978394;28;20462;-66
2021/05/05 08:29:59;;;;;;;4.63;2.13;;;17.40;78.70;;;;;;4977771;28;20461;-66
2021/05/05 08:32:26;;;;;;;2.50;1.77;;;18.10;76.90;;;;;;4977373;28;20482;-63
2021/05/05 08:34:53;;;;;;;3.70;1.70;;;18.70;78.00;;;;;;4978255;28;20463;-65
2021/05/05 08:37:19;;;;;;;4.57;1.53;;;18.40;69.10;;;;;;4978004;28;20450;-65
2021/05/05 08:39:45;;;;;;;4.00;1.53;;;19.00;77.00;;;;;;4978407;28;20447;-65
2021/05/05 08:42:12;;;;;;;4.77;1.43;;;19.70;76.20;;;;;;4977482;28;20473;-64
2021/05/05 08:44:41;;;;;;;3.80;1.93;;;19.80;65.00;;;;;;4977543;28;20462;-65
2021/05/05 08:47:07;;;;;;;3.63;1.47;;;19.70;67.90;;;;;;4977720;28;20454;-65
2021/05/05 08:49:34;;;;;;;2.90;1.30;;;19.80;67.70;;;;;;4977576;28;20505;-65
2021/05/05 08:52:01;;;;;;;2.90;1.43;;;19.60;64.00;;;;;;4977702;28;20474;-66
2021/05/05 08:54:28;;;;;;;3.07;2.00;;;19.80;65.00;;;;;;4976767;28;20465;-64
2021/05/05 08:56:54;;;;;;;1.60;1.20;;;18.80;61.80;;;;;;4977401;28;20815;-67
2021/05/05 08:59:20;;;;;;;1.90;1.33;;;17.30;64.70;;;;;;4977033;28;20873;-64
2021/05/05 09:01:47;;;;;;;3.30;1.50;;;16.30;69.30;;;;;;4976737;28;20533;-65
2021/05/05 09:04:14;;;;;;;2.23;1.37;;;15.30;72.10;;;;;;4977171;28;20506;-66
2021/05/05 09:06:50;;;;;;;4.17;1.60;;;15.70;76.20;;;;;;4977053;28;20477;-64
2021/05/05 09:09:37;;;;;;;2.07;1.27;;;16.70;77.00;;;;;;4976796;28;20874;-64
2021/05/05 09:12:17;;;;;;;4.70;1.80;;;17.50;74.70;;;;;;4977047;28;20478;-64
2021/05/05 09:14:56;;;;;;;2.50;1.63;;;18.60;77.80;;;;;;4986528;28;20443;-65
2021/05/05 09:17:23;;;;;;;5.03;1.80;;;19.70;65.20;;;;;;4989232;28;20442;-66
2021/05/05 09:19:50;;;;;;;3.47;1.37;;;20.40;60.70;;;;;;4982696;28;20462;-64
2021/05/05 09:22:38;;;;;;;1.77;1.47;;;19.70;58.80;;;;;;4978938;28;20470;-64
2021/05/05 09:25:05;;;;;;;2.50;1.60;;;19.20;62.90;;;;;;4985449;28;20439;-65
2021/05/05 09:27:33;;;;;;;5.20;1.80;;;18.60;62.20;;;;;;4984956;28;20451;-65
2021/05/05 09:30:00;;;;;;;3.53;1.93;;;18.20;64.50;;;;;;4987046;28;20482;-64
2021/05/05 09:32:27;;;;;;;5.63;1.70;;;18.00;62.80;;;;;;4984291;28;20489;-65
2021/05/05 09:34:58;;;;;;;4.57;1.50;;;18.50;64.40;;;;;;4980921;28;20455;-64
2021/05/05 09:37:25;;;;;;;3.20;2.17;;;19.50;71.20;;;;;;4978325;28;20455;-64
2021/05/05 09:39:59;;;;;;;3.00;1.53;;;19.40;60.90;;;;;;4976532;28;20819;-64
2021/05/05 09:42:28;;;;;;;3.03;1.93;;;19.20;61.40;;;;;;4976631;28;20482;-64
2021/05/05 09:44:56;;;;;;;3.93;1.60;;;18.70;61.00;;;;;;4977049;28;20509;-64
2021/05/05 09:47:23;;;;;;;2.43;1.50;;;18.20;62.80;;;;;;4977310;28;20632;-64
2021/05/05 09:49:49;;;;;;;3.10;1.80;;;18.50;62.50;;;;;;4976330;28;20558;-64
2021/05/05 09:52:23;;;;;;;4.90;1.83;;;18.30;59.50;;;;;;4976355;28;20482;-64
2021/05/05 09:54:55;;;;;;;1.37;1.27;;;18.90;59.90;;;;;;4976228;28;20438;-64
2021/05/05 09:57:24;;;;;;;2.47;1.87;;;19.40;58.90;;;;;;4976100;28;20516;-65
2021/05/05 10:00:02;;;;;;;4.13;1.67;;;19.70;57.80;;;;;;4975941;28;20463;-65
2021/05/05 10:02:30;;;;;;;1.97;1.20;;;20.10;59.30;;;;;;4975565;28;20482;-64
2021/05/05 10:05:01;;;;;;;3.07;1.70;;;20.10;55.90;;;;;;4975781;28;20459;-64
2021/05/05 10:07:28;;;;;;;2.33;1.33;;;19.80;57.20;;;;;;4976042;28;20493;-64
2021/05/05 10:09:55;;;;;;;1.90;1.50;;;19.80;57.50;;;;;;4975910;28;20462;-64
2021/05/05 10:12:23;;;;;;;3.27;1.60;;;20.30;59.20;;;;;;4975383;28;21007;-64
2021/05/05 10:14:51;;;;;;;4.33;1.67;;;21.00;56.20;;;;;;4975810;28;20462;-64
2021/05/05 10:17:18;;;;;;;2.80;1.50;;;21.50;55.60;;;;;;4976530;28;20466;-64
2021/05/05 10:19:48;;;;;;;2.03;1.30;;;21.20;54.20;;;;;;4976319;28;20477;-64
2021/05/05 10:22:14;;;;;;;3.60;1.67;;;20.20;55.00;;;;;;4976651;28;20479;-65
2021/05/05 10:24:45;;;;;;;1.93;1.30;;;19.10;53.60;;;;;;4975912;28;20950;-64
2021/05/05 10:27:13;;;;;;;1.63;1.30;;;18.70;53.90;;;;;;4976033;28;20438;-64
2021/05/05 10:29:40;;;;;;;2.63;1.60;;;18.30;54.20;;;;;;4976529;28;20514;-64
2021/05/05 10:32:11;;;;;;;1.93;1.30;;;17.10;54.60;;;;;;4976421;28;21012;-63
2021/05/05 10:34:39;;;;;;;4.70;2.00;;;16.30;57.20;;;;;;4976135;28;20478;-64
2021/05/05 10:37:08;;;;;;;2.77;1.37;;;15.90;58.90;;;;;;4975933;28;20549;-63
2021/05/05 10:39:40;;;;;;;1.57;1.47;;;16.20;63.20;;;;;;4976564;28;20980;-64
2021/05/05 10:42:14;;;;;;;4.00;1.63;;;16.40;61.30;;;;;;4976718;28;20863;-63
2021/05/05 10:44:43;;;;;;;2.37;1.43;;;15.90;62.40;;;;;;4976867;28;20442;-66
2021/05/05 10:47:13;;;;;;;1.80;0.80;;;14.20;72.50;;;;;;4975652;28;20458;-63
2021/05/05 10:50:11;;;;;;;0.60;0.60;;;13.00;91.50;;;;;;4975609;28;20968;-64
2021/05/05 10:53:05;;;;;;;2.10;0.93;;;11.10;99.90;;;;;;4976115;28;20509;-63
2021/05/05 10:55:35;;;;;;;0.70;0.70;;;9.40;99.90;;;;;;4976988;28;20458;-63
2021/05/05 10:58:07;;;;;;;2.83;1.37;;;8.20;99.90;;;;;;4975543;28;20465;-63
2021/05/05 11:01:01;;;;;;;3.57;1.13;;;7.80;99.90;;;;;;4975184;28;20462;-63
2021/05/05 11:04:02;;;;;;;1.50;0.80;;;7.50;99.90;;;;;;4975108;28;20542;-63
2021/05/05 11:06:49;;;;;;;0.83;0.83;;;7.30;99.90;;;;;;4976179;28;20902;-63
2021/05/05 11:09:44;;;;;;;0.93;0.93;;;7.20;99.90;;;;;;4974994;28;20439;-63
2021/05/05 11:12:43;;;;;;;1.67;0.77;;;7.10;99.90;;;;;;4974865;28;20454;-64
2021/05/05 11:15:10;;;;;;;0.70;0.70;;;7.20;99.90;;;;;;4968352;28;20811;-64
2021/05/05 11:17:38;;;;;;;0.80;0.80;;;7.20;99.90;;;;;;4978055;28;20453;-62
2021/05/05 11:20:05;;;;;;;0.80;0.80;;;7.30;99.90;;;;;;4981361;28;20543;-64
2021/05/05 11:22:50;;;;;;;0.83;0.83;;;7.50;99.90;;;;;;4981151;28;20470;-64
2021/05/05 11:25:34;;;;;;;1.30;0.90;;;7.60;99.90;;;;;;4981352;28;20469;-65
2021/05/05 11:28:00;;;;;;;1.10;1.10;;;7.90;99.90;;;;;;4981127;28;20438;-64
2021/05/05 11:30:49;;;;;;;1.17;1.17;;;8.10;99.90;;;;;;4981188;28;20864;-65
2021/05/05 11:33:17;;;;;;;1.20;1.20;;;8.10;99.90;;;;;;4980798;28;20998;-65
2021/05/05 11:35:43;;;;;;;2.00;1.30;;;8.30;99.90;;;;;;4980781;28;20486;-65
2021/05/05 11:38:19;;;;;;;1.70;0.90;;;8.80;99.90;;;;;;4981144;28;20454;-63
2021/05/05 11:41:06;;;;;;;3.13;1.10;;;9.50;99.90;;;;;;4981146;28;20813;-65
2021/05/05 11:43:32;;;;;;;1.10;1.10;;;10.30;99.90;;;;;;4976153;28;20458;-65
2021/05/05 11:46:02;;;;;;;1.03;1.00;;;10.60;99.90;;;;;;4983551;28;20929;-65
2021/05/05 11:48:32;;;;;;;2.03;1.10;;;11.20;99.90;;;;;;4984096;28;20478;-64
2021/05/05 11:50:58;;;;;;;1.33;1.23;;;11.70;99.90;;;;;;4983873;28;20475;-64
2021/05/05 11:53:35;;;;;;;3.80;1.23;;;11.80;99.90;;;;;;4986038;28;20489;-65
2021/05/05 11:56:03;;;;;;;1.27;1.17;;;12.20;99.90;;;;;;4983449;28;20461;-65
2021/05/05 11:58:31;;;;;;;1.90;1.40;;;12.60;99.90;;;;;;4982325;28;20466;-65
2021/05/05 12:00:59;;;;;;;1.60;1.50;;;12.90;99.90;;;;;;4983119;28;20569;-64
2021/05/05 12:03:26;;;;;;;3.43;1.10;;;13.20;99.90;;;;;;4986317;28;20513;-64
2021/05/05 12:05:55;;;;;;;1.67;1.57;;;13.50;99.90;;;;;;4985870;28;20454;-63
2021/05/05 12:08:24;;;;;;;2.83;1.30;;;13.10;99.90;;;;;;4986577;28;20837;-64
2021/05/05 12:10:52;;;;;;;3.37;1.03;;;12.90;99.90;;;;;;4987559;28;20846;-64
2021/05/05 12:13:20;;;;;;;2.50;1.50;;;12.50;99.90;;;;;;4985688;28;20462;-64
2021/05/05 12:15:56;;;;;;;4.03;1.43;;;12.50;99.90;;;;;;4984891;28;20477;-64
2021/05/05 12:18:28;;;;;;;1.83;1.67;;;12.50;99.90;;;;;;4984379;28;20434;-64
2021/05/05 12:21:03;;;;;;;4.57;1.70;;;12.90;99.90;;;;;;4983131;28;20478;-64
2021/05/05 12:23:37;;;;;;;1.67;1.10;;;13.30;99.90;;;;;;4986116;28;20438;-65
2021/05/05 12:26:14;;;;;;;2.83;1.60;;;14.00;99.90;;;;;;4983803;28;20458;-63
2021/05/05 12:28:41;;;;;;;2.87;1.30;;;14.20;99.90;;;;;;4980051;28;20442;-63
2021/05/05 12:31:07;;;;;;;2.07;1.00;;;14.30;99.90;;;;;;4980401;28;20474;-64
2021/05/05 12:33:37;;;;;;;0.90;0.90;;;14.30;99.90;;;;;;4980363;28;20478;-64
2021/05/05 12:36:09;;;;;;;4.23;1.23;;;14.40;99.90;;;;;;4980515;28;20961;-64
2021/05/05 12:38:40;;;;;;;1.70;1.17;;;14.30;96.40;;;;;;4982376;28;20443;-64
2021/05/05 12:41:08;;;;;;;3.10;2.03;;;13.80;98.30;;;;;;4981452;28;20470;-63
2021/05/05 12:43:36;;;;;;;1.57;1.40;;;14.20;99.90;;;;;;4981992;28;20482;-63
2021/05/05 12:46:04;;;;;;;2.33;1.33;;;14.10;99.90;;;;;;4980622;28;20514;-63
2021/05/05 12:48:37;;;;;;;1.33;1.10;;;13.90;98.60;;;;;;4981066;28;20531;-63
2021/05/05 12:51:13;;;;;;;4.73;1.40;;;13.30;99.50;;;;;;4980714;28;20475;-63
2021/05/05 12:53:51;;;;;;;2.13;0.97;;;13.50;99.90;;;;;;4980876;28;20473;-64
2021/05/05 12:56:19;;;;;;;1.40;1.20;;;14.00;99.90;;;;;;4978429;28;20512;-65
2021/05/05 12:58:47;;;;;;;1.10;1.00;;;14.40;99.90;;;;;;4978135;28;20473;-63
2021/05/05 13:01:14;;;;;;;2.00;0.90;;;14.60;99.90;;;;;;4977826;28;20541;-65
2021/05/05 13:03:42;;;;;;;1.63;1.10;;;14.30;99.90;;;;;;4977405;28;20521;-64
2021/05/05 13:06:11;;;;;;;1.87;1.20;;;14.30;99.90;;;;;;4977040;28;20462;-63
2021/05/05 13:08:49;;;;;;;0.90;0.90;;;14.20;99.90;;;;;;4976984;28;20462;-64
2021/05/05 13:11:27;;;;;;;3.53;1.20;;;14.30;99.90;;;;;;4977299;28;20478;-63
2021/05/05 13:13:57;;;;;;;2.10;1.00;;;14.20;99.90;;;;;;4976638;28;20478;-64
2021/05/05 13:16:51;;;;;;;0.90;0.90;;;14.00;99.90;;;;;;4977175;28;20442;-64
2021/05/05 13:19:45;;;;;;;2.50;1.10;;;13.80;99.90;;;;;;4977522;28;20439;-63
2021/05/05 13:30:43;;;;;;;1.80;1.30;;;14.40;99.90;;;;;;4976837;28;20461;-64
2021/05/05 13:33:10;;;;;;;4.00;1.70;;;14.70;99.90;;;;;;4979616;28;20466;-63
2021/05/05 13:35:39;;;;;;;5.67;1.60;;;14.80;99.90;;;;;;4979414;28;20809;-65
2021/05/05 13:38:08;;;;;;;2.23;1.23;;;14.80;99.90;;;;;;4977865;28;20941;-64
2021/05/05 13:40:37;;;;;;;2.80;1.77;;;14.80;99.90;;;;;;4977243;28;20842;-64
2021/05/05 13:43:11;;;;;;;3.40;1.47;;;14.30;99.90;;;;;;4976424;28;20451;-64
2021/05/05 13:45:41;;;;;;;1.63;1.43;;;13.90;99.90;;;;;;4975983;28;20902;-64
2021/05/05 13:48:13;;;;;;;2.40;1.50;;;13.50;98.40;;;;;;4976362;28;20533;-65
2021/05/05 13:50:39;;;;;;;2.57;1.67;;;12.70;99.90;;;;;;4976866;28;20478;-64
2021/05/05 13:53:07;;;;;;;6.00;2.33;;;11.80;99.90;;;;;;4976306;28;20486;-64
2021/05/05 13:55:34;;;;;;;2.93;1.30;;;11.30;99.90;;;;;;4976357;28;20508;-64
2021/05/05 13:58:00;;;;;;;2.07;1.60;;;11.00;99.90;;;;;;4976152;28;20462;-65
2021/05/05 14:00:26;;;;;;;3.40;1.80;;;10.40;99.90;;;;;;4975974;28;20459;-64
2021/05/05 14:02:53;;;;;;;2.53;1.70;;;10.00;99.90;;;;;;4976889;28;20775;-64
2021/05/05 14:05:19;;;;;;;2.17;1.37;;;9.60;99.90;;;;;;4976400;28;20486;-64
2021/05/05 14:07:46;;;;;;;2.40;1.53;;;8.90;99.90;;;;;;4976010;28;20458;-63
2021/05/05 14:10:13;;;;;;;1.40;1.30;;;8.50;99.90;;;;;;4975536;28;20968;-64
2021/05/05 14:12:39;;;;;;;2.40;1.23;;;8.40;99.90;;;;;;4975613;28;20479;-62
2021/05/05 14:15:11;;;;;;;1.60;1.50;;;8.00;99.90;;;;;;4975709;28;20490;-63
2021/05/05 14:17:38;;;;;;;1.33;1.00;;;8.10;99.90;;;;;;4976316;28;20906;-63
2021/05/05 14:20:10;;;;;;;1.30;1.07;;;8.30;99.90;;;;;;4975682;28;20483;-64
2021/05/05 14:22:37;;;;;;;2.50;1.40;;;8.50;99.90;;;;;;4975518;28;20475;-64
2021/05/05 14:25:06;;;;;;;1.13;1.13;;;8.80;99.90;;;;;;4975627;28;20455;-63
2021/05/05 14:27:34;;;;;;;1.40;1.30;;;9.10;99.90;;;;;;4975451;28;20461;-63
2021/05/05 14:30:00;;;;;;;5.60;2.83;;;9.70;99.90;;;;;;4975410;28;20509;-63
2021/05/05 14:32:27;;;;;;;1.30;1.20;;;10.20;99.90;;;;;;4975236;28;20482;-63
2021/05/05 14:34:54;;;;;;;6.57;1.50;;;10.60;99.90;;;;;;4975278;28;20462;-62
2021/05/05 14:37:21;;;;;;;2.20;1.67;;;11.00;99.90;;;;;;4975455;28;20456;-62
2021/05/05 14:39:47;;;;;;;4.33;1.70;;;11.30;99.90;;;;;;4975454;28;20443;-62
2021/05/05 14:42:17;;;;;;;3.63;1.60;;;11.70;99.90;;;;;;4975135;28;20479;-63
2021/05/05 14:45:01;;;;;;;4.37;1.47;;;12.10;99.90;;;;;;4974962;28;20933;-63
2021/05/05 14:50:12;;;;;;;2.77;1.43;;;12.60;99.90;;;;;;4975133;28;20461;-63
2021/05/05 14:52:39;;;;;;;1.60;1.50;;;12.90;99.90;;;;;;4974174;28;20478;-63
2021/05/05 14:55:06;;;;;;;1.43;1.30;;;13.10;99.90;;;;;;4975076;28;20442;-63
2021/05/05 14:57:35;;;;;;;1.40;1.30;;;13.20;99.90;;;;;;4974763;28;20958;-64
2021/05/05 15:00:03;;;;;;;1.83;1.70;;;13.30;99.90;;;;;;4974899;28;20817;-65
2021/05/05 15:02:30;;;;;;;3.33;1.20;;;12.80;99.90;;;;;;4974571;28;20522;-64
2021/05/05 15:04:56;;;;;;;3.87;1.90;;;13.00;99.90;;;;;;4974979;28;20446;-64
2021/05/05 15:07:22;;;;;;;2.07;1.30;;;13.20;99.90;;;;;;4974855;28;20505;-64
2021/05/05 15:09:56;;;;;;;2.37;1.20;;;13.30;99.90;;;;;;4974848;28;20442;-64
2021/05/05 15:12:35;;;;;;;1.60;1.50;;;13.60;99.90;;;;;;4974760;28;20474;-64
2021/05/05 15:15:19;;;;;;;3.27;1.83;;;13.50;99.90;;;;;;4975302;28;20449;-64
2021/05/05 15:18:20;;;;;;;1.80;1.30;;;13.50;99.90;;;;;;4975426;28;20521;-64
2021/05/05 15:29:13;;;;;;;1.40;1.20;;;13.70;99.90;;;;;;4974724;28;21033;-64
2021/05/05 15:37:09;;;;;;;2.90;1.43;;;13.30;96.70;;;;;;4961833;28;20525;-64
2021/05/05 15:39:38;;;;;;;1.30;1.20;;;13.50;98.50;;;;;;4974573;28;20794;-64
2021/05/05 15:42:07;;;;;;;1.67;1.30;;;13.60;98.30;;;;;;4974433;28;20482;-64
2021/05/05 15:44:40;;;;;;;0.87;0.87;;;13.50;93.30;;;;;;4975066;28;20447;-64
2021/05/05 15:47:16;;;;;;;1.70;1.23;;;13.50;93.70;;;;;;4974596;28;20494;-65
2021/05/05 15:49:45;;;;;;;1.37;1.10;;;13.50;92.30;;;;;;4974344;28;20533;-64
2021/05/05 15:52:11;;;;;;;3.43;0.90;;;13.30;94.70;;;;;;4974301;28;20541;-64
2021/05/05 15:54:38;;;;;;;1.60;1.13;;;13.20;93.20;;;;;;4974479;28;20836;-65
2021/05/05 15:57:07;;;;;;;1.50;1.33;;;13.10;93.50;;;;;;4974693;28;20522;-64
2021/05/05 15:59:40;;;;;;;1.30;1.07;;;12.90;94.90;;;;;;4974560;28;20545;-64
2021/05/05 16:13:13;;;;;;;1.60;0.68;;;11.80;98.70;;;;;;4976930;28;20453;-64
2021/05/05 16:15:39;;;;;;;1.70;1.17;;;11.30;99.90;;;;;;4977926;28;20192;-64
2021/05/05 16:18:10;;;;;;;1.53;1.10;;;10.50;99.90;;;;;;4977852;28;20530;-63
2021/05/05 16:20:45;;;;;;;4.13;1.10;;;10.00;99.90;;;;;;4978242;28;20475;-65
2021/05/05 16:23:21;;;;;;;3.40;1.30;;;9.90;99.90;;;;;;4978055;28;20434;-65
2021/05/05 16:25:53;;;;;;;1.20;1.20;;;9.70;99.90;;;;;;4977510;28;20932;-64
2021/05/05 16:47:58;;;;;;;1.03;1.00;;;9.70;99.90;;;;;;4917857;29;20489;-65
2021/05/05 16:50:52;;;;;;;1.20;1.10;;;9.60;99.90;;;;;;4917895;29;20929;-65
2021/05/05 16:56:19;;;;;;;2.40;1.03;;;9.30;99.90;;;;;;4977660;28;20478;-64
2021/05/05 16:59:03;;;;;;;1.17;0.90;;;9.20;99.90;;;;;;4977485;28;20478;-65
2021/05/05 17:07:19;;;;;;;1.40;1.30;;;9.20;99.90;;;;;;4957632;28;20537;-64
2021/05/05 17:09:54;;;;;;;1.40;1.40;;;9.20;99.90;;;;;;4977062;28;20445;-65
2021/05/05 17:12:21;;;;;;;1.20;1.20;;;9.10;99.90;;;;;;4977483;28;20474;-65
2021/05/05 17:14:50;;;;;;;2.80;1.83;;;9.20;99.90;;;;;;4976648;28;20885;-65
2021/05/05 17:17:20;;;;;;;5.30;1.80;;;9.10;99.90;;;;;;4977754;28;21004;-65
2021/05/05 17:19:50;;;;;;;1.73;1.20;;;9.10;99.90;;;;;;4977507;28;20485;-64
2021/05/05 17:22:21;;;;;;;2.33;1.33;;;9.20;99.90;;;;;;4977276;28;20478;-64
2021/05/05 17:24:56;;;;;;;1.17;1.13;;;9.30;99.90;;;;;;4978041;28;20431;-65
2021/05/05 17:27:29;;;;;;;2.50;1.47;;;9.30;99.90;;;;;;4978867;28;20438;-63
2021/05/05 17:30:05;;;;;;;1.23;1.23;;;9.30;99.90;;;;;;4977410;28;20439;-64
2021/05/05 17:35:29;;;;;;;3.10;1.63;;;9.10;99.90;;;;;;4976879;28;20834;-64
2021/05/05 17:43:32;;;;;;;6.30;1.60;;;9.40;99.90;;;;;;4976862;28;20435;-64
2021/05/05 17:46:04;;;;;;;3.10;1.77;;;9.40;99.90;;;;;;4976915;28;20802;-64
2021/05/05 17:48:47;;;;;;;2.40;1.20;;;9.40;99.90;;;;;;4977303;28;20443;-66
2021/05/05 17:51:36;;;;;;;1.70;1.60;;;9.40;99.90;;;;;;4976570;28;20671;-65
2021/05/05 18:10:33;;;;;;;1.97;1.53;;;9.10;99.90;;;;;;4992126;28;20418;-65
2021/05/05 18:13:47;;;;;;;2.53;2.33;;;9.20;99.90;;;;;;4991721;28;20453;-65
2021/05/05 18:16:21;;;;;;;1.93;1.83;;;9.20;99.90;;;;;;4977834;28;20455;-64
2021/05/05 18:18:51;;;;;;;1.97;1.87;;;9.20;99.90;;;;;;4977098;28;20490;-68
2021/05/05 18:21:21;;;;;;;3.43;1.70;;;9.00;99.90;;;;;;4976881;28;20474;-65
2021/05/05 18:23:50;;;;;;;2.73;1.87;;;8.90;99.90;;;;;;4976083;28;20439;-65
2021/05/05 18:26:28;;;;;;;1.60;1.50;;;8.90;99.90;;;;;;4975383;28;20554;-64
2021/05/05 18:29:08;;;;;;;1.37;1.27;;;8.80;99.90;;;;;;4975957;28;20447;-63
2021/05/05 18:31:34;;;;;;;1.87;1.40;;;8.70;99.90;;;;;;4976536;28;20537;-64
2021/05/05 18:34:00;;;;;;;1.40;1.40;;;8.70;99.90;;;;;;4976715;28;20529;-65
2021/05/05 18:36:26;;;;;;;5.67;1.50;;;8.80;99.90;;;;;;4977978;28;20816;-64
2021/05/05 18:38:56;;;;;;;1.37;1.30;;;8.70;99.90;;;;;;4977133;28;20470;-64
2021/05/05 18:41:38;;;;;;;1.67;1.57;;;8.70;99.90;;;;;;4977143;28;20475;-64